sensor_id;sensor_type;location;lat;lon;timestamp;P1;durP1;ratioP1;P2;durP2;ratioP2
68438;SDS011;55421;51.600;5.718;2023-02-28T00:01:32;16.20;;;9.90;;
68438;SDS011;55421;51.600;5.718;2023-02-28T00:03:59;19.30;;;10.30;;
68438;SDS011;55421;51.600;5.718;2023-02-28T00:06:26;13.60;;;9.10;;
68438;SDS011;55421;51.600;5.718;2023-02-28T00:08:53;15.20;;;9.30;;
68438;SDS011;55421;51.600;5.718;2023-02-28T00:11:19;14.50;;;8.80;;
68438;SDS011;55421;51.600;5.718;2023-02-28T00:13:47;16.90;;;9.90;;
68438;SDS011;55421;51.600;5.718;2023-02-28T00:16:18;15.10;;;9.40;;
68438;SDS011;55421;51.600;5.718;2023-02-28T00:18:46;16.60;;;10.50;;
68438;SDS011;55421;51.600;5.718;2023-02-28T00:21:14;17.20;;;10.00;;
68438;SDS011;55421;51.600;5.718;2023-02-28T00:23:42;18.90;;;11.00;;
68438;SDS011;55421;51.600;5.718;2023-02-28T00:26:08;16.40;;;8.50;;
68438;SDS011;55421;51.600;5.718;2023-02-28T00:28:35;18.40;;;9.50;;
68438;SDS011;55421;51.600;5.718;2023-02-28T00:31:01;13.90;;;8.70;;
68438;SDS011;55421;51.600;5.718;2023-02-28T00:33:28;15.20;;;8.20;;
68438;SDS011;55421;51.600;5.718;2023-02-28T00:36:06;12.20;;;8.00;;
68438;SDS011;55421;51.600;5.718;2023-02-28T00:38:34;15.30;;;9.60;;
68438;SDS011;55421;51.600;5.718;2023-02-28T00:41:01;15.40;;;9.60;;
68438;SDS011;55421;51.600;5.718;2023-02-28T00:43:32;21.70;;;10.00;;
68438;SDS011;55421;51.600;5.718;2023-02-28T00:46:03;18.40;;;10.10;;
68438;SDS011;55421;51.600;5.718;2023-02-28T00:48:30;18.40;;;10.50;;
68438;SDS011;55421;51.600;5.718;2023-02-28T00:50:56;16.60;;;10.30;;
68438;SDS011;55421;51.600;5.718;2023-02-28T00:53:23;16.70;;;9.80;;
68438;SDS011;55421;51.600;5.718;2023-02-28T00:55:50;15.60;;;8.10;;
68438;SDS011;55421;51.600;5.718;2023-02-28T00:58:16;11.90;;;8.10;;
68438;SDS011;55421;51.600;5.718;2023-02-28T01:00:43;15.40;;;8.20;;
68438;SDS011;55421;51.600;5.718;2023-02-28T01:03:19;17.40;;;9.00;;
68438;SDS011;55421;51.600;5.718;2023-02-28T01:05:47;15.70;;;9.30;;
68438;SDS011;55421;51.600;5.718;2023-02-28T01:08:14;18.80;;;10.40;;
68438;SDS011;55421;51.600;5.718;2023-02-28T01:10:41;17.60;;;9.60;;
68438;SDS011;55421;51.600;5.718;2023-02-28T01:13:08;16.10;;;9.30;;
68438;SDS011;55421;51.600;5.718;2023-02-28T01:15:34;15.90;;;9.20;;
68438;SDS011;55421;51.600;5.718;2023-02-28T01:18:01;14.80;;;9.00;;
68438;SDS011;55421;51.600;5.718;2023-02-28T01:20:27;15.70;;;9.00;;
68438;SDS011;55421;51.600;5.718;2023-02-28T01:22:54;13.40;;;7.50;;
68438;SDS011;55421;51.600;5.718;2023-02-28T01:25:21;15.40;;;7.90;;
68438;SDS011;55421;51.600;5.718;2023-02-28T01:27:50;14.50;;;9.00;;
68438;SDS011;55421;51.600;5.718;2023-02-28T01:30:17;13.60;;;8.90;;
68438;SDS011;55421;51.600;5.718;2023-02-28T01:32:43;18.20;;;10.00;;
68438;SDS011;55421;51.600;5.718;2023-02-28T01:35:10;17.30;;;9.60;;
68438;SDS011;55421;51.600;5.718;2023-02-28T01:37:36;18.60;;;10.10;;
68438;SDS011;55421;51.600;5.718;2023-02-28T01:40:03;14.90;;;9.10;;
68438;SDS011;55421;51.600;5.718;2023-02-28T01:42:30;16.40;;;10.20;;
68438;SDS011;55421;51.600;5.718;2023-02-28T01:47:56;18.20;;;9.40;;
68438;SDS011;55421;51.600;5.718;2023-02-28T01:50:30;15.70;;;9.40;;
68438;SDS011;55421;51.600;5.718;2023-02-28T01:53:04;15.60;;;8.40;;
68438;SDS011;55421;51.600;5.718;2023-02-28T01:55:34;14.70;;;8.10;;
68438;SDS011;55421;51.600;5.718;2023-02-28T01:58:04;14.70;;;8.50;;
68438;SDS011;55421;51.600;5.718;2023-02-28T02:00:33;15.10;;;9.30;;
68438;SDS011;55421;51.600;5.718;2023-02-28T02:03:06;16.40;;;9.50;;
68438;SDS011;55421;51.600;5.718;2023-02-28T02:05:38;14.70;;;8.90;;
68438;SDS011;55421;51.600;5.718;2023-02-28T02:08:12;14.30;;;9.10;;
68438;SDS011;55421;51.600;5.718;2023-02-28T02:10:46;19.00;;;9.80;;
68438;SDS011;55421;51.600;5.718;2023-02-28T02:13:24;15.90;;;9.10;;
68438;SDS011;55421;51.600;5.718;2023-02-28T02:16:10;17.90;;;9.50;;
68438;SDS011;55421;51.600;5.718;2023-02-28T02:18:54;15.90;;;8.50;;
68438;SDS011;55421;51.600;5.718;2023-02-28T02:21:40;15.60;;;8.60;;
68438;SDS011;55421;51.600;5.718;2023-02-28T02:24:59;17.50;;;8.90;;
68438;SDS011;55421;51.600;5.718;2023-02-28T02:33:43;15.90;;;9.50;;
68438;SDS011;55421;51.600;5.718;2023-02-28T02:42:04;13.50;;;7.40;;
68438;SDS011;55421;51.600;5.718;2023-02-28T02:44:46;13.10;;;8.00;;
68438;SDS011;55421;51.600;5.718;2023-02-28T02:47:18;14.90;;;8.40;;
68438;SDS011;55421;51.600;5.718;2023-02-28T02:49:52;14.00;;;8.00;;
68438;SDS011;55421;51.600;5.718;2023-02-28T02:52:27;13.60;;;8.70;;
68438;SDS011;55421;51.600;5.718;2023-02-28T02:55:01;14.30;;;8.90;;
68438;SDS011;55421;51.600;5.718;2023-02-28T02:57:33;15.30;;;8.40;;
68438;SDS011;55421;51.600;5.718;2023-02-28T03:00:04;18.90;;;7.40;;
68438;SDS011;55421;51.600;5.718;2023-02-28T03:02:36;12.90;;;8.10;;
68438;SDS011;55421;51.600;5.718;2023-02-28T03:05:12;18.60;;;8.60;;
68438;SDS011;55421;51.600;5.718;2023-02-28T03:07:44;13.50;;;8.10;;
68438;SDS011;55421;51.600;5.718;2023-02-28T03:10:32;14.80;;;8.20;;
68438;SDS011;55421;51.600;5.718;2023-02-28T03:16:28;15.00;;;8.80;;
68438;SDS011;55421;51.600;5.718;2023-02-28T03:19:18;11.30;;;7.50;;
68438;SDS011;55421;51.600;5.718;2023-02-28T03:30:05;16.30;;;8.90;;
68438;SDS011;55421;51.600;5.718;2023-02-28T03:32:44;15.40;;;8.00;;
68438;SDS011;55421;51.600;5.718;2023-02-28T03:35:26;12.30;;;7.60;;
68438;SDS011;55421;51.600;5.718;2023-02-28T03:38:11;10.30;;;7.00;;
68438;SDS011;55421;51.600;5.718;2023-02-28T03:40:47;11.90;;;6.80;;
68438;SDS011;55421;51.600;5.718;2023-02-28T03:43:31;9.60;;;6.80;;
68438;SDS011;55421;51.600;5.718;2023-02-28T03:46:03;11.00;;;7.10;;
68438;SDS011;55421;51.600;5.718;2023-02-28T03:48:44;13.80;;;7.40;;
68438;SDS011;55421;51.600;5.718;2023-02-28T03:51:18;10.80;;;7.20;;
68438;SDS011;55421;51.600;5.718;2023-02-28T03:53:52;13.80;;;7.60;;
68438;SDS011;55421;51.600;5.718;2023-02-28T03:56:26;12.90;;;7.70;;
68438;SDS011;55421;51.600;5.718;2023-02-28T03:59:01;13.80;;;7.00;;
68438;SDS011;55421;51.600;5.718;2023-02-28T04:01:48;13.90;;;6.30;;
68438;SDS011;55421;51.600;5.718;2023-02-28T04:04:16;8.50;;;6.00;;
68438;SDS011;55421;51.600;5.718;2023-02-28T04:06:44;14.70;;;7.60;;
68438;SDS011;55421;51.600;5.718;2023-02-28T04:09:13;10.30;;;7.40;;
68438;SDS011;55421;51.600;5.718;2023-02-28T04:11:46;13.70;;;7.20;;
68438;SDS011;55421;51.600;5.718;2023-02-28T04:14:17;11.50;;;7.20;;
68438;SDS011;55421;51.600;5.718;2023-02-28T04:16:44;11.60;;;7.50;;
68438;SDS011;55421;51.600;5.718;2023-02-28T04:19:12;11.50;;;6.50;;
68438;SDS011;55421;51.600;5.718;2023-02-28T04:21:49;14.90;;;6.90;;
68438;SDS011;55421;51.600;5.718;2023-02-28T04:24:25;9.60;;;5.80;;
68438;SDS011;55421;51.600;5.718;2023-02-28T04:26:55;8.10;;;5.70;;
68438;SDS011;55421;51.600;5.718;2023-02-28T04:29:29;10.40;;;6.70;;
68438;SDS011;55421;51.600;5.718;2023-02-28T04:31:59;13.70;;;6.90;;
68438;SDS011;55421;51.600;5.718;2023-02-28T04:34:27;11.20;;;7.30;;
68438;SDS011;55421;51.600;5.718;2023-02-28T04:36:56;11.20;;;7.40;;
68438;SDS011;55421;51.600;5.718;2023-02-28T04:39:24;11.50;;;7.60;;
68438;SDS011;55421;51.600;5.718;2023-02-28T04:41:51;10.20;;;6.60;;
68438;SDS011;55421;51.600;5.718;2023-02-28T04:44:17;14.10;;;7.30;;
68438;SDS011;55421;51.600;5.718;2023-02-28T04:46:44;11.30;;;6.30;;
68438;SDS011;55421;51.600;5.718;2023-02-28T04:49:11;9.30;;;5.70;;
68438;SDS011;55421;51.600;5.718;2023-02-28T04:51:39;13.20;;;6.20;;
68438;SDS011;55421;51.600;5.718;2023-02-28T04:54:06;13.20;;;6.90;;
68438;SDS011;55421;51.600;5.718;2023-02-28T04:56:33;14.30;;;6.90;;
68438;SDS011;55421;51.600;5.718;2023-02-28T04:59:00;10.40;;;6.70;;
68438;SDS011;55421;51.600;5.718;2023-02-28T05:01:29;13.80;;;7.10;;
68438;SDS011;55421;51.600;5.718;2023-02-28T05:03:58;11.00;;;6.50;;
68438;SDS011;55421;51.600;5.718;2023-02-28T05:06:29;9.90;;;5.80;;
68438;SDS011;55421;51.600;5.718;2023-02-28T05:08:57;10.30;;;5.50;;
68438;SDS011;55421;51.600;5.718;2023-02-28T05:11:26;9.60;;;5.50;;
68438;SDS011;55421;51.600;5.718;2023-02-28T05:14:02;12.70;;;6.00;;
68438;SDS011;55421;51.600;5.718;2023-02-28T05:16:31;9.60;;;6.40;;
68438;SDS011;55421;51.600;5.718;2023-02-28T05:18:59;10.00;;;5.70;;
68438;SDS011;55421;51.600;5.718;2023-02-28T05:21:31;12.50;;;6.40;;
68438;SDS011;55421;51.600;5.718;2023-02-28T05:24:02;12.10;;;6.00;;
68438;SDS011;55421;51.600;5.718;2023-02-28T05:26:34;9.90;;;5.40;;
68438;SDS011;55421;51.600;5.718;2023-02-28T05:29:02;7.80;;;5.50;;
68438;SDS011;55421;51.600;5.718;2023-02-28T05:31:29;8.40;;;5.40;;
68438;SDS011;55421;51.600;5.718;2023-02-28T05:33:55;10.60;;;4.90;;
68438;SDS011;55421;51.600;5.718;2023-02-28T05:36:22;8.10;;;5.30;;
68438;SDS011;55421;51.600;5.718;2023-02-28T05:38:49;8.30;;;5.30;;
68438;SDS011;55421;51.600;5.718;2023-02-28T05:41:17;9.50;;;5.70;;
68438;SDS011;55421;51.600;5.718;2023-02-28T05:43:45;9.80;;;5.20;;
68438;SDS011;55421;51.600;5.718;2023-02-28T05:46:13;13.90;;;5.50;;
68438;SDS011;55421;51.600;5.718;2023-02-28T05:48:41;7.00;;;4.70;;
68438;SDS011;55421;51.600;5.718;2023-02-28T05:51:08;6.10;;;4.80;;
68438;SDS011;55421;51.600;5.718;2023-02-28T05:53:36;8.20;;;5.10;;
68438;SDS011;55421;51.600;5.718;2023-02-28T05:56:03;6.30;;;4.50;;
68438;SDS011;55421;51.600;5.718;2023-02-28T05:58:30;9.20;;;5.20;;
68438;SDS011;55421;51.600;5.718;2023-02-28T06:00:58;7.70;;;5.20;;
68438;SDS011;55421;51.600;5.718;2023-02-28T06:03:26;10.50;;;5.40;;
68438;SDS011;55421;51.600;5.718;2023-02-28T06:05:53;9.50;;;6.20;;
68438;SDS011;55421;51.600;5.718;2023-02-28T06:08:20;10.30;;;5.90;;
68438;SDS011;55421;51.600;5.718;2023-02-28T06:10:47;9.00;;;5.70;;
68438;SDS011;55421;51.600;5.718;2023-02-28T06:13:13;9.70;;;5.60;;
68438;SDS011;55421;51.600;5.718;2023-02-28T06:15:40;9.70;;;5.10;;
68438;SDS011;55421;51.600;5.718;2023-02-28T06:18:07;9.10;;;5.50;;
68438;SDS011;55421;51.600;5.718;2023-02-28T06:20:33;7.70;;;5.20;;
68438;SDS011;55421;51.600;5.718;2023-02-28T06:23:00;9.80;;;5.40;;
68438;SDS011;55421;51.600;5.718;2023-02-28T06:25:27;12.60;;;6.40;;
68438;SDS011;55421;51.600;5.718;2023-02-28T06:27:54;11.70;;;6.30;;
68438;SDS011;55421;51.600;5.718;2023-02-28T06:30:21;12.20;;;6.70;;
68438;SDS011;55421;51.600;5.718;2023-02-28T06:32:53;9.30;;;6.00;;
68438;SDS011;55421;51.600;5.718;2023-02-28T06:35:20;8.90;;;6.50;;
68438;SDS011;55421;51.600;5.718;2023-02-28T06:37:47;8.40;;;4.90;;
68438;SDS011;55421;51.600;5.718;2023-02-28T06:40:13;9.40;;;5.60;;
68438;SDS011;55421;51.600;5.718;2023-02-28T06:42:40;7.70;;;5.10;;
68438;SDS011;55421;51.600;5.718;2023-02-28T06:45:07;12.60;;;6.30;;
68438;SDS011;55421;51.600;5.718;2023-02-28T06:47:36;10.90;;;6.40;;
68438;SDS011;55421;51.600;5.718;2023-02-28T06:50:05;11.30;;;6.10;;
68438;SDS011;55421;51.600;5.718;2023-02-28T06:52:32;9.80;;;6.70;;
68438;SDS011;55421;51.600;5.718;2023-02-28T06:54:59;10.90;;;6.10;;
68438;SDS011;55421;51.600;5.718;2023-02-28T06:57:29;12.00;;;5.80;;
68438;SDS011;55421;51.600;5.718;2023-02-28T07:00:02;9.00;;;5.20;;
68438;SDS011;55421;51.600;5.718;2023-02-28T07:02:35;10.80;;;5.80;;
68438;SDS011;55421;51.600;5.718;2023-02-28T07:05:05;9.00;;;6.40;;
68438;SDS011;55421;51.600;5.718;2023-02-28T07:07:32;9.80;;;6.10;;
68438;SDS011;55421;51.600;5.718;2023-02-28T07:09:59;10.90;;;6.20;;
68438;SDS011;55421;51.600;5.718;2023-02-28T07:12:25;9.70;;;6.20;;
68438;SDS011;55421;51.600;5.718;2023-02-28T07:14:52;11.50;;;6.50;;
68438;SDS011;55421;51.600;5.718;2023-02-28T07:17:18;8.00;;;5.60;;
68438;SDS011;55421;51.600;5.718;2023-02-28T07:19:45;10.00;;;5.60;;
68438;SDS011;55421;51.600;5.718;2023-02-28T07:22:11;9.30;;;5.30;;
68438;SDS011;55421;51.600;5.718;2023-02-28T07:24:38;12.40;;;6.00;;
68438;SDS011;55421;51.600;5.718;2023-02-28T07:27:04;9.40;;;5.90;;
68438;SDS011;55421;51.600;5.718;2023-02-28T07:29:31;11.40;;;6.60;;
68438;SDS011;55421;51.600;5.718;2023-02-28T07:31:57;13.80;;;6.60;;
68438;SDS011;55421;51.600;5.718;2023-02-28T07:34:24;11.00;;;6.20;;
68438;SDS011;55421;51.600;5.718;2023-02-28T07:36:55;10.70;;;6.60;;
68438;SDS011;55421;51.600;5.718;2023-02-28T07:39:22;8.20;;;5.90;;
68438;SDS011;55421;51.600;5.718;2023-02-28T07:41:48;10.20;;;7.20;;
68438;SDS011;55421;51.600;5.718;2023-02-28T07:44:15;9.60;;;6.10;;
68438;SDS011;55421;51.600;5.718;2023-02-28T07:46:41;9.20;;;5.30;;
68438;SDS011;55421;51.600;5.718;2023-02-28T07:49:08;10.70;;;4.90;;
68438;SDS011;55421;51.600;5.718;2023-02-28T07:51:34;9.10;;;6.00;;
68438;SDS011;55421;51.600;5.718;2023-02-28T07:54:01;9.80;;;6.10;;
68438;SDS011;55421;51.600;5.718;2023-02-28T07:56:28;10.90;;;6.20;;
68438;SDS011;55421;51.600;5.718;2023-02-28T07:58:54;9.20;;;6.00;;
68438;SDS011;55421;51.600;5.718;2023-02-28T08:01:21;9.30;;;6.30;;
68438;SDS011;55421;51.600;5.718;2023-02-28T08:03:47;9.20;;;5.80;;
68438;SDS011;55421;51.600;5.718;2023-02-28T08:06:20;9.70;;;5.90;;
68438;SDS011;55421;51.600;5.718;2023-02-28T08:08:48;9.70;;;5.30;;
68438;SDS011;55421;51.600;5.718;2023-02-28T08:11:16;10.00;;;5.60;;
68438;SDS011;55421;51.600;5.718;2023-02-28T08:13:44;8.80;;;5.00;;
68438;SDS011;55421;51.600;5.718;2023-02-28T08:16:13;6.40;;;4.20;;
68438;SDS011;55421;51.600;5.718;2023-02-28T08:18:50;7.30;;;4.50;;
68438;SDS011;55421;51.600;5.718;2023-02-28T08:21:19;5.20;;;3.60;;
68438;SDS011;55421;51.600;5.718;2023-02-28T08:23:48;5.30;;;3.90;;
68438;SDS011;55421;51.600;5.718;2023-02-28T08:26:18;4.70;;;3.60;;
68438;SDS011;55421;51.600;5.718;2023-02-28T08:28:46;5.10;;;3.40;;
68438;SDS011;55421;51.600;5.718;2023-02-28T08:31:14;4.80;;;3.40;;
68438;SDS011;55421;51.600;5.718;2023-02-28T08:33:42;4.40;;;3.00;;
68438;SDS011;55421;51.600;5.718;2023-02-28T08:36:11;4.60;;;2.90;;
68438;SDS011;55421;51.600;5.718;2023-02-28T08:38:37;4.30;;;3.20;;
68438;SDS011;55421;51.600;5.718;2023-02-28T08:41:08;5.20;;;3.10;;
68438;SDS011;55421;51.600;5.718;2023-02-28T08:43:37;4.50;;;3.30;;
68438;SDS011;55421;51.600;5.718;2023-02-28T08:46:05;4.50;;;3.30;;
68438;SDS011;55421;51.600;5.718;2023-02-28T08:48:34;5.90;;;3.50;;
68438;SDS011;55421;51.600;5.718;2023-02-28T08:53:47;4.60;;;3.30;;
68438;SDS011;55421;51.600;5.718;2023-02-28T08:56:16;4.30;;;3.50;;
68438;SDS011;55421;51.600;5.718;2023-02-28T08:58:44;4.40;;;3.50;;
68438;SDS011;55421;51.600;5.718;2023-02-28T09:01:21;5.30;;;3.90;;
68438;SDS011;55421;51.600;5.718;2023-02-28T09:03:50;5.20;;;3.60;;
68438;SDS011;55421;51.600;5.718;2023-02-28T09:06:18;8.60;;;3.70;;
68438;SDS011;55421;51.600;5.718;2023-02-28T09:08:46;5.90;;;3.60;;
68438;SDS011;55421;51.600;5.718;2023-02-28T09:11:13;5.30;;;3.40;;
68438;SDS011;55421;51.600;5.718;2023-02-28T09:13:40;4.40;;;3.50;;
68438;SDS011;55421;51.600;5.718;2023-02-28T09:16:10;5.00;;;3.30;;
68438;SDS011;55421;51.600;5.718;2023-02-28T09:18:38;5.00;;;3.00;;
68438;SDS011;55421;51.600;5.718;2023-02-28T09:21:07;4.90;;;3.20;;
68438;SDS011;55421;51.600;5.718;2023-02-28T09:23:36;6.10;;;3.30;;
68438;SDS011;55421;51.600;5.718;2023-02-28T09:26:06;9.80;;;3.60;;
68438;SDS011;55421;51.600;5.718;2023-02-28T09:28:33;3.90;;;3.40;;
68438;SDS011;55421;51.600;5.718;2023-02-28T09:31:00;3.80;;;3.20;;
68438;SDS011;55421;51.600;5.718;2023-02-28T09:33:26;5.40;;;3.10;;
68438;SDS011;55421;51.600;5.718;2023-02-28T09:35:58;6.30;;;3.70;;
68438;SDS011;55421;51.600;5.718;2023-02-28T09:38:27;5.60;;;3.00;;
68438;SDS011;55421;51.600;5.718;2023-02-28T09:40:58;4.40;;;3.10;;
68438;SDS011;55421;51.600;5.718;2023-02-28T09:43:32;4.40;;;3.20;;
68438;SDS011;55421;51.600;5.718;2023-02-28T09:46:18;4.50;;;2.80;;
68438;SDS011;55421;51.600;5.718;2023-02-28T09:48:54;5.90;;;2.80;;
68438;SDS011;55421;51.600;5.718;2023-02-28T09:51:34;4.40;;;2.60;;
68438;SDS011;55421;51.600;5.718;2023-02-28T09:54:13;5.50;;;3.10;;
68438;SDS011;55421;51.600;5.718;2023-02-28T09:56:49;3.40;;;2.10;;
68438;SDS011;55421;51.600;5.718;2023-02-28T09:59:29;5.30;;;2.60;;
68438;SDS011;55421;51.600;5.718;2023-02-28T10:05:08;3.00;;;2.50;;
68438;SDS011;55421;51.600;5.718;2023-02-28T10:07:53;2.90;;;2.00;;
68438;SDS011;55421;51.600;5.718;2023-02-28T10:13:11;2.20;;;1.90;;
68438;SDS011;55421;51.600;5.718;2023-02-28T10:15:44;3.30;;;2.00;;
68438;SDS011;55421;51.600;5.718;2023-02-28T10:18:16;2.40;;;2.20;;
68438;SDS011;55421;51.600;5.718;2023-02-28T10:20:49;3.20;;;2.50;;
68438;SDS011;55421;51.600;5.718;2023-02-28T10:23:27;2.20;;;2.00;;
68438;SDS011;55421;51.600;5.718;2023-02-28T10:26:13;2.40;;;2.20;;
68438;SDS011;55421;51.600;5.718;2023-02-28T10:28:43;4.70;;;2.10;;
68438;SDS011;55421;51.600;5.718;2023-02-28T10:31:17;2.50;;;2.30;;
68438;SDS011;55421;51.600;5.718;2023-02-28T10:33:46;3.70;;;2.10;;
68438;SDS011;55421;51.600;5.718;2023-02-28T10:36:16;2.10;;;1.90;;
68438;SDS011;55421;51.600;5.718;2023-02-28T10:38:45;8.70;;;2.50;;
68438;SDS011;55421;51.600;5.718;2023-02-28T10:41:15;2.70;;;2.00;;
68438;SDS011;55421;51.600;5.718;2023-02-28T10:46:42;2.60;;;2.00;;
68438;SDS011;55421;51.600;5.718;2023-02-28T10:49:20;2.50;;;2.10;;
68438;SDS011;55421;51.600;5.718;2023-02-28T10:51:54;2.80;;;2.40;;
68438;SDS011;55421;51.600;5.718;2023-02-28T10:54:35;3.50;;;2.20;;
68438;SDS011;55421;51.600;5.718;2023-02-28T10:57:13;2.60;;;1.80;;
68438;SDS011;55421;51.600;5.718;2023-02-28T10:59:50;2.50;;;2.20;;
68438;SDS011;55421;51.600;5.718;2023-02-28T11:02:36;3.50;;;2.20;;
68438;SDS011;55421;51.600;5.718;2023-02-28T11:05:27;3.40;;;2.20;;
68438;SDS011;55421;51.600;5.718;2023-02-28T11:07:56;1.70;;;1.60;;
68438;SDS011;55421;51.600;5.718;2023-02-28T11:10:31;2.90;;;2.40;;
68438;SDS011;55421;51.600;5.718;2023-02-28T11:13:01;3.90;;;2.10;;
68438;SDS011;55421;51.600;5.718;2023-02-28T11:15:32;3.20;;;2.20;;
68438;SDS011;55421;51.600;5.718;2023-02-28T11:18:18;2.60;;;2.20;;
68438;SDS011;55421;51.600;5.718;2023-02-28T11:20:50;3.60;;;2.30;;
68438;SDS011;55421;51.600;5.718;2023-02-28T11:23:20;3.30;;;2.40;;
68438;SDS011;55421;51.600;5.718;2023-02-28T11:25:51;3.30;;;2.40;;
68438;SDS011;55421;51.600;5.718;2023-02-28T11:33:41;2.60;;;2.10;;
68438;SDS011;55421;51.600;5.718;2023-02-28T11:39:04;2.90;;;2.40;;
68438;SDS011;55421;51.600;5.718;2023-02-28T11:47:25;4.10;;;2.50;;
68438;SDS011;55421;51.600;5.718;2023-02-28T11:56:38;3.00;;;2.20;;
68438;SDS011;55421;51.600;5.718;2023-02-28T11:59:36;2.30;;;2.00;;
68438;SDS011;55421;51.600;5.718;2023-02-28T12:02:23;3.30;;;2.60;;
68438;SDS011;55421;51.600;5.718;2023-02-28T12:05:30;3.80;;;2.20;;
68438;SDS011;55421;51.600;5.718;2023-02-28T12:11:09;5.30;;;2.90;;
68438;SDS011;55421;51.600;5.718;2023-02-28T12:16:40;2.90;;;2.50;;
68438;SDS011;55421;51.600;5.718;2023-02-28T12:27:38;3.90;;;2.80;;
68438;SDS011;55421;51.600;5.718;2023-02-28T12:30:21;3.20;;;2.80;;
68438;SDS011;55421;51.600;5.718;2023-02-28T12:32:55;2.70;;;2.20;;
68438;SDS011;55421;51.600;5.718;2023-02-28T12:35:48;3.20;;;2.90;;
68438;SDS011;55421;51.600;5.718;2023-02-28T12:38:41;4.00;;;2.70;;
68438;SDS011;55421;51.600;5.718;2023-02-28T12:41:18;5.20;;;3.20;;
68438;SDS011;55421;51.600;5.718;2023-02-28T12:43:57;2.70;;;2.50;;
68438;SDS011;55421;51.600;5.718;2023-02-28T12:46:48;3.70;;;2.60;;
68438;SDS011;55421;51.600;5.718;2023-02-28T12:52:10;3.00;;;2.70;;
68438;SDS011;55421;51.600;5.718;2023-02-28T12:54:50;2.80;;;2.50;;
68438;SDS011;55421;51.600;5.718;2023-02-28T13:00:17;2.30;;;2.10;;
68438;SDS011;55421;51.600;5.718;2023-02-28T13:11:59;5.30;;;2.70;;
68438;SDS011;55421;51.600;5.718;2023-02-28T13:14:28;3.40;;;3.00;;
68438;SDS011;55421;51.600;5.718;2023-02-28T13:17:01;3.70;;;3.10;;
68438;SDS011;55421;51.600;5.718;2023-02-28T13:19:31;4.00;;;2.50;;
68438;SDS011;55421;51.600;5.718;2023-02-28T13:22:02;3.80;;;2.70;;
68438;SDS011;55421;51.600;5.718;2023-02-28T13:24:45;3.40;;;2.80;;
68438;SDS011;55421;51.600;5.718;2023-02-28T13:29:43;3.40;;;2.80;;
68438;SDS011;55421;51.600;5.718;2023-02-28T13:34:40;3.90;;;2.80;;
68438;SDS011;55421;51.600;5.718;2023-02-28T13:39:53;3.20;;;2.70;;
68438;SDS011;55421;51.600;5.718;2023-02-28T13:47:52;4.40;;;2.90;;
68438;SDS011;55421;51.600;5.718;2023-02-28T14:05:27;3.50;;;3.00;;
68438;SDS011;55421;51.600;5.718;2023-02-28T14:07:58;6.50;;;3.40;;
68438;SDS011;55421;51.600;5.718;2023-02-28T14:10:44;4.00;;;3.20;;
68438;SDS011;55421;51.600;5.718;2023-02-28T14:16:00;3.30;;;3.00;;
68438;SDS011;55421;51.600;5.718;2023-02-28T14:18:30;3.70;;;3.00;;
68438;SDS011;55421;51.600;5.718;2023-02-28T14:21:17;4.50;;;3.20;;
68438;SDS011;55421;51.600;5.718;2023-02-28T14:24:01;4.70;;;3.20;;
68438;SDS011;55421;51.600;5.718;2023-02-28T14:32:54;3.80;;;3.20;;
68438;SDS011;55421;51.600;5.718;2023-02-28T14:35:50;4.40;;;3.20;;
68438;SDS011;55421;51.600;5.718;2023-02-28T14:38:27;3.20;;;2.90;;
68438;SDS011;55421;51.600;5.718;2023-02-28T14:40:58;4.00;;;3.00;;
68438;SDS011;55421;51.600;5.718;2023-02-28T14:43:28;3.30;;;3.00;;
68438;SDS011;55421;51.600;5.718;2023-02-28T14:46:00;4.20;;;3.30;;
68438;SDS011;55421;51.600;5.718;2023-02-28T14:48:28;3.50;;;2.90;;
68438;SDS011;55421;51.600;5.718;2023-02-28T14:50:57;3.60;;;3.00;;
68438;SDS011;55421;51.600;5.718;2023-02-28T14:55:56;3.40;;;3.10;;
68438;SDS011;55421;51.600;5.718;2023-02-28T14:58:25;4.30;;;3.50;;
68438;SDS011;55421;51.600;5.718;2023-02-28T15:00:59;3.50;;;3.20;;
68438;SDS011;55421;51.600;5.718;2023-02-28T15:03:38;4.60;;;3.30;;
68438;SDS011;55421;51.600;5.718;2023-02-28T15:06:13;3.80;;;3.40;;
68438;SDS011;55421;51.600;5.718;2023-02-28T15:08:41;3.80;;;3.50;;
68438;SDS011;55421;51.600;5.718;2023-02-28T15:11:16;4.80;;;3.50;;
68438;SDS011;55421;51.600;5.718;2023-02-28T15:13:54;3.60;;;3.20;;
68438;SDS011;55421;51.600;5.718;2023-02-28T15:16:40;3.90;;;3.50;;
68438;SDS011;55421;51.600;5.718;2023-02-28T15:22:02;4.30;;;3.90;;
68438;SDS011;55421;51.600;5.718;2023-02-28T15:24:41;4.90;;;2.80;;
68438;SDS011;55421;51.600;5.718;2023-02-28T15:27:22;5.00;;;3.70;;
68438;SDS011;55421;51.600;5.718;2023-02-28T15:29:55;3.70;;;3.40;;
68438;SDS011;55421;51.600;5.718;2023-02-28T15:32:30;4.20;;;3.70;;
68438;SDS011;55421;51.600;5.718;2023-02-28T15:35:18;6.30;;;3.70;;
68438;SDS011;55421;51.600;5.718;2023-02-28T15:37:57;6.00;;;3.70;;
68438;SDS011;55421;51.600;5.718;2023-02-28T15:40:31;4.60;;;3.60;;
68438;SDS011;55421;51.600;5.718;2023-02-28T15:43:57;4.00;;;3.60;;
68438;SDS011;55421;51.600;5.718;2023-02-28T15:46:06;4.90;;;3.70;;
68438;SDS011;55421;51.600;5.718;2023-02-28T15:48:47;6.90;;;3.70;;
68438;SDS011;55421;51.600;5.718;2023-02-28T15:51:32;3.60;;;3.20;;
68438;SDS011;55421;51.600;5.718;2023-02-28T15:54:10;4.80;;;3.30;;
68438;SDS011;55421;51.600;5.718;2023-02-28T15:56:51;3.90;;;3.20;;
68438;SDS011;55421;51.600;5.718;2023-02-28T15:59:25;4.40;;;3.40;;
68438;SDS011;55421;51.600;5.718;2023-02-28T16:02:04;4.70;;;3.90;;
68438;SDS011;55421;51.600;5.718;2023-02-28T16:05:25;5.80;;;3.70;;
68438;SDS011;55421;51.600;5.718;2023-02-28T16:08:14;5.60;;;3.50;;
68438;SDS011;55421;51.600;5.718;2023-02-28T16:10:42;4.00;;;3.60;;
68438;SDS011;55421;51.600;5.718;2023-02-28T16:13:11;7.90;;;4.20;;
68438;SDS011;55421;51.600;5.718;2023-02-28T16:15:42;6.20;;;4.00;;
68438;SDS011;55421;51.600;5.718;2023-02-28T16:18:11;5.90;;;4.30;;
68438;SDS011;55421;51.600;5.718;2023-02-28T16:20:38;4.10;;;3.60;;
68438;SDS011;55421;51.600;5.718;2023-02-28T16:23:05;7.70;;;4.40;;
68438;SDS011;55421;51.600;5.718;2023-02-28T16:25:37;5.50;;;4.40;;
68438;SDS011;55421;51.600;5.718;2023-02-28T16:28:25;6.00;;;4.50;;
68438;SDS011;55421;51.600;5.718;2023-02-28T16:31:02;5.10;;;4.20;;
68438;SDS011;55421;51.600;5.718;2023-02-28T16:33:31;5.20;;;4.00;;
68438;SDS011;55421;51.600;5.718;2023-02-28T16:35:59;6.50;;;3.70;;
68438;SDS011;55421;51.600;5.718;2023-02-28T16:38:26;5.00;;;3.90;;
68438;SDS011;55421;51.600;5.718;2023-02-28T16:40:55;5.50;;;4.30;;
68438;SDS011;55421;51.600;5.718;2023-02-28T16:45:55;5.40;;;4.10;;
68438;SDS011;55421;51.600;5.718;2023-02-28T16:48:24;4.80;;;3.90;;
68438;SDS011;55421;51.600;5.718;2023-02-28T16:50:51;4.90;;;4.00;;
68438;SDS011;55421;51.600;5.718;2023-02-28T16:53:18;5.90;;;3.90;;
68438;SDS011;55421;51.600;5.718;2023-02-28T16:55:44;6.20;;;4.10;;
68438;SDS011;55421;51.600;5.718;2023-02-28T16:58:15;5.80;;;4.60;;
68438;SDS011;55421;51.600;5.718;2023-02-28T17:00:43;4.40;;;4.00;;
68438;SDS011;55421;51.600;5.718;2023-02-28T17:03:22;5.20;;;4.20;;
68438;SDS011;55421;51.600;5.718;2023-02-28T17:05:50;6.10;;;4.30;;
68438;SDS011;55421;51.600;5.718;2023-02-28T17:08:16;7.80;;;4.80;;
68438;SDS011;55421;51.600;5.718;2023-02-28T17:10:43;5.30;;;3.60;;
68438;SDS011;55421;51.600;5.718;2023-02-28T17:13:12;6.60;;;4.60;;
68438;SDS011;55421;51.600;5.718;2023-02-28T17:15:38;6.40;;;4.10;;
68438;SDS011;55421;51.600;5.718;2023-02-28T17:18:05;5.10;;;3.70;;
68438;SDS011;55421;51.600;5.718;2023-02-28T17:20:32;9.30;;;4.50;;
68438;SDS011;55421;51.600;5.718;2023-02-28T17:22:59;7.90;;;4.20;;
68438;SDS011;55421;51.600;5.718;2023-02-28T17:25:26;6.60;;;4.50;;